Hlavní strana
METAR-TAF:

METAR-TAF

Letiště :

Kostanay, Kazachstán

zeměpisná šířka: 53-12-23N, zeměpisná délka: 063-33-03E, výška: 182 m

Aktuální stav počasí

Zpráva byla vytvořena před 33 minutami, v 12:00 UTC
Severoseverovýchodní vítr 14 kt, proměnlivý mezi severoseverozápadním a severovýchodním
Teplota 19°C
Vlhkost vzduchu 34%
Tlak 1019 hPa
Viditelnost 10 km a více
Žádná oblačnost pod 1500 m, nevyskytují se cumulonimby.

METAR: UAUU 041200Z 02007MPS 340V050 CAVOK 19/03 Q1019 R33/CLRD70 NOSIG RMK QFE749/0999

Čas: 18:33 (12:33 UTC)

Předpověď počasí

Zpráva byla vytvořena před 1 hodinou a 33 minutami, v 11:00 UTC
Předpověď platná od 04 v 12 UTC do 04 v 21 UTC
Severoseverovýchodní vítr 12 kt
Viditelnost 10 km a více
Polojasno ve výšce 3000 ft
Dočasný
od 04 v 12 UTC do 04 v 16 UTC
Severovýchodní vítr 14 kt s nárazy do 25 kt
Změna
od 04 v 16 UTC do 04 v 17 UTC
Východoseverovýchodní vítr 6 kt

TAF: UAUU 041100Z 0412/0421 03006MPS 9999 SCT030 TEMPO 0412/0416 04007G13MPS BECMG 0416/0417 07003MPS

Stav a předpovědi počasí z více než 4 000 letišť (zprávy METAR a TAF).

Červené a žluté tečky na mapě představují dostupné meteorologické stanice.

Když kurzor umístíte na tečku, zobrazí se název stanice.

Pak kliknutím zobrazíte stav a předpověď počasí.

Chcete-li změnit mapu, kliknutím na zelené tlačítko se znaménkem +mapu přiblížíte, kliknutím na zelené tlačítko se znaménkem – mapu oddálíte a kliknutím na zelené šipky přejdete na sousední mapy.


METAR-TAF: